createdAt,value
2017-12-17T00:02:25.160Z,3.80
2017-12-17T00:04:52.813Z,4.20
2017-12-17T00:07:20.420Z,5.23
2017-12-17T00:09:48.005Z,4.47
2017-12-17T00:12:15.618Z,4.80
2017-12-17T00:14:43.967Z,5.13
2017-12-17T00:17:11.577Z,4.87
2017-12-17T00:19:39.177Z,4.83
2017-12-17T00:22:06.869Z,5.60
2017-12-17T00:24:35.348Z,5.03
2017-12-17T00:27:02.951Z,5.47
2017-12-17T00:29:30.534Z,4.23
2017-12-17T00:31:58.149Z,5.03
2017-12-17T00:34:26.589Z,5.77
2017-12-17T00:36:54.226Z,5.00
2017-12-17T00:39:21.813Z,6.40
2017-12-17T00:41:49.431Z,4.53
2017-12-17T00:44:17.048Z,5.43
2017-12-17T00:46:46.141Z,5.63
2017-12-17T00:49:13.816Z,5.17
2017-12-17T00:51:41.405Z,6.20
2017-12-17T00:54:09.857Z,5.03
2017-12-17T00:56:37.441Z,4.47
2017-12-17T00:59:05.904Z,6.97
2017-12-17T01:01:33.492Z,5.73
2017-12-17T01:04:01.873Z,5.57
2017-12-17T01:06:29.567Z,5.27
2017-12-17T01:08:57.177Z,5.40
2017-12-17T01:11:25.539Z,5.90
2017-12-17T01:13:53.208Z,5.07
2017-12-17T01:16:20.869Z,5.37
2017-12-17T01:18:48.492Z,4.77
2017-12-17T01:21:16.081Z,4.37
2017-12-17T01:23:43.747Z,4.83
2017-12-17T01:26:11.356Z,5.13
2017-12-17T01:28:38.949Z,6.00
2017-12-17T01:31:06.653Z,5.80
2017-12-17T01:33:34.308Z,5.90
2017-12-17T01:36:01.969Z,6.30
2017-12-17T01:38:29.539Z,4.50
2017-12-17T01:40:57.153Z,5.80
2017-12-17T01:43:24.743Z,5.40
2017-12-17T01:45:52.356Z,5.17
2017-12-17T01:48:19.940Z,5.00
2017-12-17T01:50:47.635Z,6.63
2017-12-17T01:53:15.221Z,5.17
2017-12-17T01:55:43.680Z,5.60
2017-12-17T01:58:11.273Z,5.40
2017-12-17T02:00:38.858Z,5.00
2017-12-17T02:03:06.455Z,5.70
2017-12-17T02:05:34.039Z,5.07
2017-12-17T02:08:02.413Z,5.80
2017-12-17T02:10:29.996Z,5.50
2017-12-17T02:12:57.626Z,5.23
2017-12-17T02:15:25.199Z,5.80
2017-12-17T02:17:53.668Z,5.73
2017-12-17T02:20:21.334Z,4.90
2017-12-17T02:22:48.951Z,6.10
2017-12-17T02:25:16.555Z,5.60
2017-12-17T02:27:44.216Z,4.90
2017-12-17T02:30:11.884Z,4.40
2017-12-17T02:32:39.536Z,4.30
2017-12-17T02:35:07.122Z,4.90
2017-12-17T02:37:35.587Z,4.50
2017-12-17T02:40:03.248Z,4.63
2017-12-17T02:42:30.832Z,4.40
2017-12-17T02:44:59.293Z,4.00
2017-12-17T02:47:26.958Z,4.17
2017-12-17T02:49:54.612Z,5.90
2017-12-17T02:52:22.280Z,3.90
2017-12-17T02:54:49.936Z,4.23
2017-12-17T02:57:17.520Z,4.93
2017-12-17T02:59:45.979Z,4.03
2017-12-17T03:02:13.560Z,4.80
2017-12-17T03:04:42.032Z,4.60
2017-12-17T03:07:09.683Z,4.90
2017-12-17T03:09:37.392Z,5.03
2017-12-17T03:12:05.727Z,4.00
2017-12-17T03:14:33.391Z,4.50
2017-12-17T03:17:00.996Z,4.60
2017-12-17T03:19:28.620Z,4.43
2017-12-17T03:21:56.278Z,4.10
2017-12-17T03:24:23.860Z,4.37
2017-12-17T03:26:52.236Z,4.00
2017-12-17T03:29:20.591Z,4.10
2017-12-17T03:31:48.632Z,4.40
2017-12-17T03:34:16.244Z,4.17
2017-12-17T03:36:43.894Z,4.80
2017-12-17T03:39:11.480Z,4.17
2017-12-17T03:41:39.848Z,4.40
2017-12-17T03:44:08.191Z,4.60
2017-12-17T03:46:35.788Z,4.37
2017-12-17T03:49:03.368Z,4.80
2017-12-17T03:51:31.810Z,4.07
2017-12-17T03:53:59.391Z,4.47
2017-12-17T03:56:27.757Z,4.70
2017-12-17T03:58:55.424Z,4.00
2017-12-17T04:01:23.800Z,3.90
2017-12-17T04:03:51.404Z,3.80
2017-12-17T04:06:19.024Z,4.90
2017-12-17T04:08:46.687Z,4.57
2017-12-17T04:11:14.347Z,4.50
2017-12-17T04:13:41.947Z,3.70
2017-12-17T04:16:09.567Z,4.73
2017-12-17T04:18:37.196Z,4.73
2017-12-17T04:21:04.780Z,5.70
2017-12-17T04:23:32.389Z,4.30
2017-12-17T04:25:59.974Z,4.63
2017-12-17T04:28:27.575Z,4.70
2017-12-17T04:30:55.241Z,4.33
2017-12-17T04:33:22.905Z,4.83
2017-12-17T04:35:50.569Z,5.27
2017-12-17T04:38:18.227Z,4.40
2017-12-17T04:40:46.604Z,4.20
2017-12-17T04:43:14.272Z,4.57
2017-12-17T04:45:41.936Z,3.90
2017-12-17T04:48:09.520Z,4.60
2017-12-17T04:50:37.888Z,4.40
2017-12-17T04:53:06.240Z,5.27
2017-12-17T04:55:33.916Z,5.70
2017-12-17T04:58:01.492Z,4.97
2017-12-17T05:00:29.953Z,4.90
2017-12-17T05:02:57.536Z,4.67
2017-12-17T05:05:25.904Z,4.53
2017-12-17T05:07:53.564Z,4.93
2017-12-17T05:10:21.220Z,4.80
2017-12-17T05:12:48.795Z,5.50
2017-12-17T05:15:16.442Z,4.97
2017-12-17T05:17:44.052Z,5.07
2017-12-17T05:20:11.671Z,5.03
2017-12-17T05:22:39.280Z,5.70
2017-12-17T05:25:06.895Z,4.10
2017-12-17T05:27:34.500Z,4.70
2017-12-17T05:30:02.116Z,4.80
2017-12-17T05:32:29.719Z,4.70
2017-12-17T05:34:57.406Z,4.37
2017-12-17T05:37:25.108Z,4.20
2017-12-17T05:39:52.767Z,4.53
2017-12-17T05:42:20.433Z,4.80
2017-12-17T05:44:48.024Z,5.20
2017-12-17T05:47:16.471Z,5.10
2017-12-17T05:49:44.047Z,6.13
2017-12-17T05:52:11.648Z,5.67
2017-12-17T05:54:39.232Z,6.17
2017-12-17T05:57:06.924Z,4.90
2017-12-17T05:59:34.575Z,4.77
2017-12-17T06:02:02.155Z,4.20
2017-12-17T06:04:30.627Z,5.47
2017-12-17T06:06:58.207Z,5.30
2017-12-17T06:09:26.659Z,4.70
2017-12-17T06:11:54.331Z,5.27
2017-12-17T06:14:21.987Z,5.50
2017-12-17T06:16:49.656Z,5.73
2017-12-17T06:19:17.260Z,5.17
2017-12-17T06:21:44.880Z,5.77
2017-12-17T06:24:12.544Z,4.90
2017-12-17T06:26:40.128Z,5.03
2017-12-17T06:29:08.500Z,5.30
2017-12-17T06:31:36.855Z,4.77
2017-12-17T06:34:04.460Z,5.93
2017-12-17T06:36:32.057Z,5.50
2017-12-17T06:38:59.747Z,6.33
2017-12-17T06:41:27.442Z,5.60
2017-12-17T06:43:55.784Z,5.97
2017-12-17T06:46:23.387Z,4.80
2017-12-17T06:48:50.974Z,5.40
2017-12-17T06:51:18.676Z,5.43
2017-12-17T06:53:46.345Z,6.43
2017-12-17T06:56:13.997Z,4.87
2017-12-17T06:58:42.484Z,5.50
2017-12-17T07:01:10.148Z,5.43
2017-12-17T07:03:37.809Z,6.10
2017-12-17T07:06:05.472Z,5.17
2017-12-17T07:08:33.060Z,5.90
2017-12-17T07:11:01.427Z,4.97
2017-12-17T07:13:29.776Z,6.30
2017-12-17T07:15:57.488Z,5.80
2017-12-17T07:18:25.935Z,5.03
2017-12-17T07:20:53.554Z,5.50
2017-12-17T07:23:21.256Z,4.57
2017-12-17T07:25:48.925Z,4.57
2017-12-17T07:28:17.314Z,5.50
2017-12-17T07:30:45.684Z,5.00
2017-12-17T07:33:13.347Z,5.97
2017-12-17T07:35:41.007Z,5.27
2017-12-17T07:38:08.671Z,5.43
2017-12-17T07:40:36.259Z,4.53
2017-12-17T07:43:04.716Z,4.60
2017-12-17T07:45:33.196Z,5.15
2017-12-17T07:48:00.860Z,5.73
2017-12-17T07:50:28.440Z,4.07
2017-12-17T07:52:59.162Z,3.47
2017-12-17T07:55:26.748Z,4.30
2017-12-17T07:57:55.251Z,4.70
2017-12-17T08:00:22.860Z,4.30
2017-12-17T08:02:50.443Z,3.53
2017-12-17T08:05:18.812Z,4.30
2017-12-17T08:07:46.476Z,5.33
2017-12-17T08:10:14.080Z,4.23
2017-12-17T08:12:41.664Z,4.77
2017-12-17T08:15:09.268Z,4.10
2017-12-17T08:17:37.728Z,4.87
2017-12-17T08:20:05.336Z,4.43
2017-12-17T08:22:32.920Z,4.50
2017-12-17T08:25:00.520Z,4.80
2017-12-17T08:27:28.175Z,4.30
2017-12-17T08:29:55.836Z,5.17
2017-12-17T08:32:23.499Z,4.33
2017-12-17T08:34:51.096Z,5.00
2017-12-17T08:37:18.719Z,4.70
2017-12-17T08:39:46.320Z,4.03
2017-12-17T08:42:13.896Z,4.13
2017-12-17T08:44:41.529Z,6.03
2017-12-17T08:47:09.880Z,3.80
2017-12-17T08:49:37.543Z,4.50
2017-12-17T08:52:05.923Z,4.53
2017-12-17T08:54:34.276Z,3.03
2017-12-17T08:57:01.875Z,3.93
2017-12-17T08:59:29.533Z,5.43
2017-12-17T09:01:57.899Z,4.43
2017-12-17T09:04:25.480Z,3.97
2017-12-17T09:06:53.132Z,4.80
2017-12-17T09:09:20.707Z,4.57
2017-12-17T09:11:48.359Z,3.77
2017-12-17T09:14:15.940Z,4.90
2017-12-17T09:16:44.313Z,4.40
2017-12-17T09:19:12.680Z,3.73
2017-12-17T09:21:40.304Z,4.97
2017-12-17T09:24:07.899Z,4.20
2017-12-17T09:26:35.559Z,3.60
2017-12-17T09:29:03.165Z,3.97
2017-12-17T09:31:30.752Z,4.17
2017-12-17T09:33:58.452Z,3.50
2017-12-17T09:36:26.115Z,4.00
2017-12-17T09:38:53.733Z,3.93
2017-12-17T09:41:21.342Z,3.40
2017-12-17T09:43:49.000Z,3.50
2017-12-17T09:46:16.654Z,3.73
2017-12-17T09:48:45.029Z,3.27
2017-12-17T09:51:12.773Z,2.83
2017-12-17T09:53:40.373Z,3.50
2017-12-17T09:56:07.957Z,4.00
2017-12-17T09:58:36.409Z,3.70
2017-12-17T10:01:03.983Z,4.47
2017-12-17T10:03:32.335Z,3.70
2017-12-17T10:06:00.008Z,3.10
2017-12-17T10:08:27.671Z,3.50
2017-12-17T10:10:55.340Z,2.70
2017-12-17T10:13:22.920Z,3.20
2017-12-17T10:15:51.293Z,3.23
2017-12-17T10:18:19.661Z,3.00
2017-12-17T10:20:47.264Z,2.20
2017-12-17T10:23:14.876Z,3.17
2017-12-17T10:25:42.544Z,3.63
2017-12-17T10:28:10.129Z,2.83
2017-12-17T10:30:37.759Z,2.93
2017-12-17T10:33:05.336Z,3.00
2017-12-17T10:35:32.988Z,3.40
2017-12-17T10:38:01.331Z,3.70
2017-12-17T10:40:28.932Z,3.53
2017-12-17T10:42:56.592Z,3.47
2017-12-17T10:45:24.256Z,3.10
2017-12-17T10:47:51.865Z,4.43
2017-12-17T10:50:19.475Z,4.17
2017-12-17T10:52:47.085Z,3.63
2017-12-17T10:55:14.707Z,4.50
2017-12-17T10:57:42.359Z,4.33
2017-12-17T11:00:09.939Z,3.50
2017-12-17T11:02:38.407Z,3.97
2017-12-17T11:05:05.988Z,3.20
2017-12-17T11:07:34.355Z,3.20
2017-12-17T11:10:01.940Z,4.23
2017-12-17T11:12:30.314Z,3.50
2017-12-17T11:14:58.768Z,3.00
2017-12-17T11:17:26.352Z,2.90
2017-12-17T11:19:54.719Z,2.23
2017-12-17T11:22:23.153Z,2.10
2017-12-17T11:24:50.851Z,2.97
2017-12-17T11:27:18.511Z,1.83
2017-12-17T11:29:46.111Z,2.23
2017-12-17T11:32:14.464Z,2.67
2017-12-17T11:34:42.063Z,3.00
2017-12-17T11:37:09.644Z,2.40
2017-12-17T11:39:37.242Z,2.43
2017-12-17T11:42:04.899Z,2.57
2017-12-17T11:44:32.564Z,2.37
2017-12-17T11:47:00.139Z,2.30
2017-12-17T11:49:27.742Z,1.97
2017-12-17T11:51:55.324Z,2.27
2017-12-17T11:54:23.012Z,2.40
2017-12-17T11:56:50.767Z,1.77
2017-12-17T11:59:18.343Z,2.07
2017-12-17T12:01:45.943Z,1.90
2017-12-17T12:04:13.560Z,2.60
2017-12-17T12:06:41.163Z,2.20
2017-12-17T12:09:08.784Z,2.20
2017-12-17T12:11:36.387Z,2.60
2017-12-17T12:14:03.964Z,3.37
2017-12-17T12:16:31.567Z,3.57
2017-12-17T12:18:59.232Z,2.20
2017-12-17T12:21:26.894Z,2.50
2017-12-17T12:23:54.551Z,3.27
2017-12-17T12:26:22.152Z,3.27
2017-12-17T12:28:49.780Z,31.47
2017-12-17T12:31:17.387Z,2.63
2017-12-17T12:33:44.968Z,3.30
2017-12-17T12:36:12.587Z,2.50
2017-12-17T12:38:41.043Z,2.40
2017-12-17T12:41:08.708Z,2.67
2017-12-17T12:43:36.372Z,2.50
2017-12-17T12:46:03.951Z,2.60
2017-12-17T12:48:32.319Z,2.90
2017-12-17T12:50:59.972Z,2.67
2017-12-17T12:53:27.577Z,2.37
2017-12-17T12:55:55.164Z,2.87
2017-12-17T12:58:22.766Z,3.17
2017-12-17T13:00:50.420Z,3.40
2017-12-17T13:03:18.088Z,3.27
2017-12-17T13:05:45.744Z,3.00
2017-12-17T13:08:13.348Z,3.07
2017-12-17T13:10:40.973Z,3.40
2017-12-17T13:13:08.632Z,3.60
2017-12-17T13:15:36.296Z,2.50
2017-12-17T13:18:03.951Z,2.93
2017-12-17T13:20:31.532Z,2.93
2017-12-17T13:23:00.000Z,3.20
2017-12-17T13:25:29.096Z,3.60
2017-12-17T13:27:56.684Z,3.37
2017-12-17T13:30:25.140Z,4.30
2017-12-17T13:32:52.815Z,3.00
2017-12-17T13:35:21.284Z,3.77
2017-12-17T13:37:48.944Z,3.43
2017-12-17T13:40:16.547Z,2.90
2017-12-17T13:42:44.171Z,2.37
2017-12-17T13:45:11.776Z,2.80
2017-12-17T13:47:39.392Z,3.10
2017-12-17T13:50:07.000Z,2.77
2017-12-17T13:52:35.540Z,3.10
2017-12-17T13:55:03.212Z,2.60
2017-12-17T13:57:30.795Z,3.60
2017-12-17T13:59:58.398Z,3.57
2017-12-17T14:02:26.150Z,2.87
2017-12-17T14:04:53.751Z,2.30
2017-12-17T14:07:21.328Z,2.60
2017-12-17T14:09:49.788Z,2.73
2017-12-17T14:12:18.876Z,2.33
2017-12-17T14:14:46.480Z,3.00
2017-12-17T14:17:14.063Z,2.87
2017-12-17T14:19:41.640Z,3.20
2017-12-17T14:22:09.328Z,2.73
2017-12-17T14:24:36.912Z,2.53
2017-12-17T14:27:05.359Z,2.67
2017-12-17T14:29:33.046Z,2.77
2017-12-17T14:32:00.651Z,2.37
2017-12-17T14:34:28.264Z,3.00
2017-12-17T14:36:55.924Z,2.73
2017-12-17T14:39:23.589Z,3.00
2017-12-17T14:41:51.477Z,2.43
2017-12-17T14:44:19.936Z,2.50
2017-12-17T14:46:47.548Z,2.53
2017-12-17T14:49:15.124Z,2.47
2017-12-17T14:51:42.728Z,2.67
2017-12-17T14:54:10.303Z,2.80
2017-12-17T14:56:38.673Z,3.13
2017-12-17T14:59:07.043Z,3.70
2017-12-17T15:01:34.648Z,3.00
2017-12-17T15:04:02.264Z,2.80
2017-12-17T15:06:30.739Z,2.73
2017-12-17T15:08:58.320Z,2.90
2017-12-17T15:11:26.668Z,2.63
2017-12-17T15:13:54.269Z,3.30
2017-12-17T15:16:22.616Z,3.00
2017-12-17T15:18:50.288Z,3.03
2017-12-17T15:21:17.868Z,2.90
2017-12-17T15:23:46.323Z,3.20
2017-12-17T15:26:13.988Z,2.97
2017-12-17T15:28:41.655Z,3.60
2017-12-17T15:31:09.320Z,3.53
2017-12-17T15:33:36.988Z,3.90
2017-12-17T15:36:04.643Z,3.80
2017-12-17T15:38:32.239Z,3.43
2017-12-17T15:40:59.819Z,4.07
2017-12-17T15:43:27.528Z,4.20
2017-12-17T15:45:55.196Z,4.00
2017-12-17T15:48:22.788Z,3.70
2017-12-17T15:50:50.416Z,4.53
2017-12-17T15:53:18.000Z,3.73
2017-12-17T15:55:46.451Z,4.67
2017-12-17T15:58:14.121Z,4.90
2017-12-17T16:00:41.728Z,3.80
2017-12-17T16:03:09.347Z,5.37
2017-12-17T16:05:36.999Z,3.60
2017-12-17T16:08:04.675Z,4.40
2017-12-17T16:10:32.332Z,4.07
2017-12-17T16:12:59.915Z,3.53
2017-12-17T16:15:28.291Z,4.53
2017-12-17T16:17:56.663Z,4.00
2017-12-17T16:20:24.268Z,4.97
2017-12-17T16:22:51.876Z,4.33
2017-12-17T16:25:19.539Z,4.97
2017-12-17T16:27:47.124Z,4.80
2017-12-17T16:30:15.584Z,4.70
2017-12-17T16:32:43.245Z,7.13
2017-12-17T16:35:12.444Z,6.73
2017-12-17T16:37:40.024Z,7.43
2017-12-17T16:40:08.484Z,7.13
2017-12-17T16:42:36.867Z,6.47
2017-12-17T16:45:04.528Z,7.40
2017-12-17T16:47:32.192Z,8.73
2017-12-17T16:49:59.851Z,8.60
2017-12-17T16:52:27.461Z,9.13
2017-12-17T16:54:55.076Z,7.60
2017-12-17T16:57:23.472Z,7.60
2017-12-17T16:59:51.836Z,7.70
2017-12-17T17:02:19.499Z,7.70
2017-12-17T17:04:47.086Z,6.80
2017-12-17T17:07:15.540Z,6.50
2017-12-17T17:09:44.023Z,6.87
2017-12-17T17:12:12.444Z,6.20
2017-12-17T17:14:40.047Z,6.07
2017-12-17T17:17:07.680Z,6.65
2017-12-17T17:19:35.392Z,6.95
2017-12-17T17:22:03.816Z,6.90
2017-12-17T17:24:31.424Z,7.35
2017-12-17T17:26:59.811Z,8.18
2017-12-17T17:29:28.208Z,6.70
2017-12-17T17:31:55.857Z,6.00
2017-12-17T17:34:24.268Z,6.93
2017-12-17T17:36:51.916Z,5.45
2017-12-17T17:39:19.559Z,6.93
2017-12-17T17:41:47.934Z,6.47
2017-12-17T17:44:16.421Z,7.10
2017-12-17T17:46:45.624Z,7.57
2017-12-17T17:49:13.283Z,7.00
2017-12-17T17:51:41.655Z,7.75
2017-12-17T17:54:10.149Z,8.48
2017-12-17T17:56:38.623Z,8.98
2017-12-17T17:59:07.028Z,11.90
2017-12-17T18:01:34.671Z,22.27
2017-12-17T18:04:03.129Z,12.60
2017-12-17T18:06:30.816Z,13.77
2017-12-17T18:08:59.302Z,13.65
2017-12-17T18:11:26.960Z,20.08
2017-12-17T18:13:55.365Z,20.85
2017-12-17T18:16:22.984Z,16.17
2017-12-17T18:18:50.596Z,16.42
2017-12-17T18:21:18.327Z,10.05
2017-12-17T18:23:46.711Z,10.60
2017-12-17T18:26:14.352Z,12.60
2017-12-17T18:28:42.032Z,12.70
2017-12-17T18:31:10.486Z,14.30
2017-12-17T18:33:38.084Z,11.68
2017-12-17T18:36:05.719Z,13.57
2017-12-17T18:38:33.400Z,8.75
2017-12-17T18:41:01.805Z,7.87
2017-12-17T18:43:29.444Z,7.57
2017-12-17T18:45:57.924Z,8.65
2017-12-17T18:48:26.412Z,7.40
2017-12-17T18:50:54.892Z,7.03
2017-12-17T18:53:23.372Z,6.50
2017-12-17T18:55:51.776Z,9.23
2017-12-17T18:58:19.411Z,5.97
2017-12-17T19:00:47.896Z,5.47
2017-12-17T19:03:16.271Z,7.62
2017-12-17T19:05:44.642Z,8.85
2017-12-17T19:08:12.267Z,7.32
2017-12-17T19:10:39.886Z,7.43
2017-12-17T19:13:08.281Z,5.97
2017-12-17T19:15:35.900Z,6.45
2017-12-17T19:18:03.591Z,6.03
2017-12-17T19:20:31.968Z,6.10
2017-12-17T19:23:00.488Z,5.15
2017-12-17T19:25:28.092Z,6.60
2017-12-17T19:27:55.773Z,5.57
2017-12-17T19:30:24.254Z,5.72
2017-12-17T19:32:52.730Z,7.40
2017-12-17T19:35:21.115Z,5.57
2017-12-17T19:37:48.759Z,5.22
2017-12-17T19:40:16.435Z,5.35
2017-12-17T19:42:44.828Z,6.62
2017-12-17T19:45:12.431Z,4.90
2017-12-17T19:47:40.059Z,5.30
2017-12-17T19:50:07.703Z,5.10
2017-12-17T19:52:36.115Z,5.25
2017-12-17T19:55:03.724Z,5.35
2017-12-17T19:57:31.332Z,6.82
2017-12-17T19:59:59.060Z,7.15
2017-12-17T20:02:27.457Z,5.50
2017-12-17T20:04:55.093Z,6.20
2017-12-17T20:07:22.839Z,5.37
2017-12-17T20:09:50.544Z,4.93
2017-12-17T20:12:18.204Z,5.00
2017-12-17T20:14:45.863Z,5.30
2017-12-17T20:17:14.244Z,5.60
2017-12-17T20:19:41.852Z,5.00
2017-12-17T20:22:09.436Z,5.40
2017-12-17T20:24:37.040Z,5.50
2017-12-17T20:27:04.627Z,5.60
2017-12-17T20:29:32.222Z,6.27
2017-12-17T20:31:59.804Z,6.23
2017-12-17T20:34:27.415Z,9.73
2017-12-17T20:36:55.005Z,6.70
2017-12-17T20:39:22.655Z,6.33
2017-12-17T20:41:50.261Z,5.00
2017-12-17T20:44:17.841Z,6.40
2017-12-17T20:46:46.211Z,5.80
2017-12-17T20:49:13.864Z,5.03
2017-12-17T20:51:41.527Z,4.67
2017-12-17T20:54:10.012Z,4.87
2017-12-17T20:56:37.616Z,4.70
2017-12-17T20:59:05.193Z,4.40
2017-12-17T21:01:32.796Z,5.00
2017-12-17T21:04:00.452Z,4.17
2017-12-17T21:06:28.215Z,3.90
2017-12-17T21:08:55.884Z,3.83
2017-12-17T21:11:23.488Z,4.40
2017-12-17T21:13:51.072Z,4.40
2017-12-17T21:16:18.763Z,4.83
2017-12-17T21:18:46.348Z,4.80
2017-12-17T21:21:14.724Z,5.37
2017-12-17T21:23:43.080Z,5.50
2017-12-17T21:26:10.752Z,4.70
2017-12-17T21:28:39.096Z,5.60
2017-12-17T21:31:06.687Z,3.90
2017-12-17T21:33:34.351Z,5.63
2017-12-17T21:36:01.935Z,5.20
2017-12-17T21:38:30.304Z,6.47
2017-12-17T21:40:57.956Z,6.10
2017-12-17T21:43:25.620Z,5.87
2017-12-17T21:45:53.284Z,6.17
2017-12-17T21:48:20.940Z,6.50
2017-12-17T21:50:48.523Z,5.80
2017-12-17T21:53:16.988Z,6.27
2017-12-17T21:55:44.572Z,6.10
2017-12-17T21:58:12.940Z,6.10
2017-12-17T22:00:40.519Z,7.50
2017-12-17T22:03:08.887Z,6.57
2017-12-17T22:05:37.228Z,7.73
2017-12-17T22:08:04.907Z,6.60
2017-12-17T22:10:32.488Z,6.27
2017-12-17T22:13:00.951Z,6.60
2017-12-17T22:15:29.330Z,8.37
2017-12-17T22:17:56.996Z,7.20
2017-12-17T22:20:24.581Z,7.20
2017-12-17T22:22:53.040Z,7.73
2017-12-17T22:25:20.699Z,6.90
2017-12-17T22:27:48.328Z,7.60
2017-12-17T22:30:15.940Z,7.77
2017-12-17T22:32:44.289Z,7.23
2017-12-17T22:35:11.968Z,8.40
2017-12-17T22:37:39.631Z,7.43
2017-12-17T22:40:07.291Z,6.30
2017-12-17T22:42:34.863Z,8.50
2017-12-17T22:45:02.516Z,7.90
2017-12-17T22:47:30.117Z,7.37
2017-12-17T22:49:57.723Z,8.50
2017-12-17T22:52:25.307Z,7.83
2017-12-17T22:54:53.681Z,8.60
2017-12-17T22:57:21.263Z,7.73
2017-12-17T22:59:49.635Z,8.47
2017-12-17T23:02:18.099Z,9.37
2017-12-17T23:04:45.711Z,8.50
2017-12-17T23:07:13.322Z,7.87
2017-12-17T23:09:40.939Z,8.33
2017-12-17T23:12:08.543Z,8.80
2017-12-17T23:14:36.213Z,8.03
2017-12-17T23:17:03.820Z,9.10
2017-12-17T23:19:31.432Z,9.83
2017-12-17T23:21:59.087Z,8.53
2017-12-17T23:24:26.758Z,9.90
2017-12-17T23:26:54.419Z,10.00
2017-12-17T23:29:22.084Z,9.73
2017-12-17T23:31:50.560Z,10.93
2017-12-17T23:34:18.228Z,9.10
2017-12-17T23:36:46.608Z,10.57
2017-12-17T23:39:14.191Z,10.33
2017-12-17T23:41:42.651Z,8.67
2017-12-17T23:44:10.231Z,9.70
2017-12-17T23:46:38.607Z,10.00
2017-12-17T23:49:07.137Z,10.57
2017-12-17T23:51:35.482Z,9.97
2017-12-17T23:54:03.830Z,10.67
2017-12-17T23:56:31.416Z,10.77
2017-12-17T23:58:59.788Z,11.60
